sensor_id;sensor_type;location;lat;lon;timestamp;temperature;humidity
13721;DHT22;6932;51.438;5.470;2022-07-23T00:02:09;24.40;84.40
13721;DHT22;6932;51.438;5.470;2022-07-23T00:04:35;24.40;84.30
13721;DHT22;6932;51.438;5.470;2022-07-23T00:07:00;24.30;84.20
13721;DHT22;6932;51.438;5.470;2022-07-23T00:09:26;24.30;84.60
13721;DHT22;6932;51.438;5.470;2022-07-23T00:11:53;24.30;84.70
13721;DHT22;6932;51.438;5.470;2022-07-23T00:14:19;24.30;84.70
13721;DHT22;6932;51.438;5.470;2022-07-23T00:16:45;24.30;84.50
13721;DHT22;6932;51.438;5.470;2022-07-23T00:19:11;24.30;84.60
13721;DHT22;6932;51.438;5.470;2022-07-23T00:21:36;24.30;84.70
13721;DHT22;6932;51.438;5.470;2022-07-23T00:24:02;24.30;84.60
13721;DHT22;6932;51.438;5.470;2022-07-23T00:26:28;24.30;85.00
13721;DHT22;6932;51.438;5.470;2022-07-23T00:28:54;24.20;84.40
13721;DHT22;6932;51.438;5.470;2022-07-23T00:31:19;24.20;84.50
13721;DHT22;6932;51.438;5.470;2022-07-23T00:33:45;24.20;84.60
13721;DHT22;6932;51.438;5.470;2022-07-23T00:36:11;24.20;84.80
13721;DHT22;6932;51.438;5.470;2022-07-23T00:38:37;24.20;84.80
13721;DHT22;6932;51.438;5.470;2022-07-23T00:41:02;24.20;85.00
13721;DHT22;6932;51.438;5.470;2022-07-23T00:43:28;24.10;84.80
13721;DHT22;6932;51.438;5.470;2022-07-23T00:45:54;24.10;85.10
13721;DHT22;6932;51.438;5.470;2022-07-23T00:48:20;24.10;85.00
13721;DHT22;6932;51.438;5.470;2022-07-23T00:50:45;24.10;84.80
13721;DHT22;6932;51.438;5.470;2022-07-23T00:53:12;24.10;84.60
13721;DHT22;6932;51.438;5.470;2022-07-23T00:55:38;24.10;84.70
13721;DHT22;6932;51.438;5.470;2022-07-23T00:58:04;24.10;84.70
13721;DHT22;6932;51.438;5.470;2022-07-23T01:00:31;24.10;84.70
13721;DHT22;6932;51.438;5.470;2022-07-23T01:02:57;24.10;85.10
13721;DHT22;6932;51.438;5.470;2022-07-23T01:05:23;24.00;85.10
13721;DHT22;6932;51.438;5.470;2022-07-23T01:07:49;24.00;85.30
13721;DHT22;6932;51.438;5.470;2022-07-23T01:10:16;24.00;84.80
13721;DHT22;6932;51.438;5.470;2022-07-23T01:13:05;24.00;85.10
13721;DHT22;6932;51.438;5.470;2022-07-23T01:15:34;24.00;84.70
13721;DHT22;6932;51.438;5.470;2022-07-23T01:18:01;24.00;85.10
13721;DHT22;6932;51.438;5.470;2022-07-23T01:20:28;24.00;84.80
13721;DHT22;6932;51.438;5.470;2022-07-23T01:22:55;23.90;84.60
13721;DHT22;6932;51.438;5.470;2022-07-23T01:25:21;23.90;84.60
13721;DHT22;6932;51.438;5.470;2022-07-23T01:27:48;23.90;84.80
13721;DHT22;6932;51.438;5.470;2022-07-23T01:30:15;23.90;84.70
13721;DHT22;6932;51.438;5.470;2022-07-23T01:32:41;23.90;84.90
13721;DHT22;6932;51.438;5.470;2022-07-23T01:35:07;23.80;84.90
13721;DHT22;6932;51.438;5.470;2022-07-23T01:37:33;23.80;85.80
13721;DHT22;6932;51.438;5.470;2022-07-23T01:39:59;23.80;85.30
13721;DHT22;6932;51.438;5.470;2022-07-23T01:42:25;23.80;85.30
13721;DHT22;6932;51.438;5.470;2022-07-23T01:44:51;23.80;84.60
13721;DHT22;6932;51.438;5.470;2022-07-23T01:47:16;23.80;84.70
13721;DHT22;6932;51.438;5.470;2022-07-23T01:49:42;23.80;84.80
13721;DHT22;6932;51.438;5.470;2022-07-23T01:52:08;23.80;84.90
13721;DHT22;6932;51.438;5.470;2022-07-23T01:54:38;23.80;84.90
13721;DHT22;6932;51.438;5.470;2022-07-23T01:57:05;23.70;84.60
13721;DHT22;6932;51.438;5.470;2022-07-23T01:59:31;23.70;85.10
13721;DHT22;6932;51.438;5.470;2022-07-23T02:01:57;23.70;85.00
13721;DHT22;6932;51.438;5.470;2022-07-23T02:04:25;23.70;85.50
13721;DHT22;6932;51.438;5.470;2022-07-23T02:06:52;23.60;85.10
13721;DHT22;6932;51.438;5.470;2022-07-23T02:09:18;23.60;85.00
13721;DHT22;6932;51.438;5.470;2022-07-23T02:11:44;23.60;85.10
13721;DHT22;6932;51.438;5.470;2022-07-23T02:14:10;23.50;85.30
13721;DHT22;6932;51.438;5.470;2022-07-23T02:16:36;23.50;85.40
13721;DHT22;6932;51.438;5.470;2022-07-23T02:19:03;23.50;85.50
13721;DHT22;6932;51.438;5.470;2022-07-23T02:21:29;23.50;85.60
13721;DHT22;6932;51.438;5.470;2022-07-23T02:23:54;23.50;85.20
13721;DHT22;6932;51.438;5.470;2022-07-23T02:26:20;23.50;85.00
13721;DHT22;6932;51.438;5.470;2022-07-23T02:28:46;23.50;85.10
13721;DHT22;6932;51.438;5.470;2022-07-23T02:31:11;23.40;84.80
13721;DHT22;6932;51.438;5.470;2022-07-23T02:33:37;23.40;85.20
13721;DHT22;6932;51.438;5.470;2022-07-23T02:36:03;23.40;85.90
13721;DHT22;6932;51.438;5.470;2022-07-23T02:38:30;23.40;86.00
13721;DHT22;6932;51.438;5.470;2022-07-23T02:40:56;23.30;85.90
13721;DHT22;6932;51.438;5.470;2022-07-23T02:43:21;23.40;86.20
13721;DHT22;6932;51.438;5.470;2022-07-23T02:45:47;23.40;86.50
13721;DHT22;6932;51.438;5.470;2022-07-23T02:48:13;23.30;86.10
13721;DHT22;6932;51.438;5.470;2022-07-23T02:50:39;23.30;86.50
13721;DHT22;6932;51.438;5.470;2022-07-23T02:53:05;23.40;86.60
13721;DHT22;6932;51.438;5.470;2022-07-23T02:55:30;23.30;86.80
13721;DHT22;6932;51.438;5.470;2022-07-23T02:57:57;23.30;86.40
13721;DHT22;6932;51.438;5.470;2022-07-23T03:00:23;23.30;86.70
13721;DHT22;6932;51.438;5.470;2022-07-23T03:02:49;23.30;86.90
13721;DHT22;6932;51.438;5.470;2022-07-23T03:05:14;23.20;86.90
13721;DHT22;6932;51.438;5.470;2022-07-23T03:07:40;23.20;87.30
13721;DHT22;6932;51.438;5.470;2022-07-23T03:10:06;23.20;87.20
13721;DHT22;6932;51.438;5.470;2022-07-23T03:12:32;23.20;87.20
13721;DHT22;6932;51.438;5.470;2022-07-23T03:14:58;23.20;87.10
13721;DHT22;6932;51.438;5.470;2022-07-23T03:17:24;23.20;87.20
13721;DHT22;6932;51.438;5.470;2022-07-23T03:19:49;23.20;87.10
13721;DHT22;6932;51.438;5.470;2022-07-23T03:22:15;23.20;87.00
13721;DHT22;6932;51.438;5.470;2022-07-23T03:24:41;23.20;87.00
13721;DHT22;6932;51.438;5.470;2022-07-23T03:27:26;23.20;87.00
13721;DHT22;6932;51.438;5.470;2022-07-23T03:29:56;23.20;87.40
13721;DHT22;6932;51.438;5.470;2022-07-23T03:32:23;23.20;86.60
13721;DHT22;6932;51.438;5.470;2022-07-23T03:34:50;23.20;86.60
13721;DHT22;6932;51.438;5.470;2022-07-23T03:37:18;23.20;87.00
13721;DHT22;6932;51.438;5.470;2022-07-23T03:39:44;23.20;86.70
13721;DHT22;6932;51.438;5.470;2022-07-23T03:42:10;23.10;86.70
13721;DHT22;6932;51.438;5.470;2022-07-23T03:44:35;23.20;86.80
13721;DHT22;6932;51.438;5.470;2022-07-23T03:47:05;23.10;86.90
13721;DHT22;6932;51.438;5.470;2022-07-23T03:49:32;23.10;86.80
13721;DHT22;6932;51.438;5.470;2022-07-23T03:51:58;23.10;87.10
13721;DHT22;6932;51.438;5.470;2022-07-23T03:54:24;23.10;86.90
13721;DHT22;6932;51.438;5.470;2022-07-23T03:56:50;23.00;86.90
13721;DHT22;6932;51.438;5.470;2022-07-23T03:59:16;23.00;87.10
13721;DHT22;6932;51.438;5.470;2022-07-23T04:01:41;23.00;87.30
13721;DHT22;6932;51.438;5.470;2022-07-23T04:04:07;23.00;87.30
13721;DHT22;6932;51.438;5.470;2022-07-23T04:06:34;23.00;86.90
13721;DHT22;6932;51.438;5.470;2022-07-23T04:09:00;23.00;86.80
13721;DHT22;6932;51.438;5.470;2022-07-23T04:11:26;23.00;86.70
13721;DHT22;6932;51.438;5.470;2022-07-23T04:13:52;23.00;86.60
13721;DHT22;6932;51.438;5.470;2022-07-23T04:16:18;23.00;86.60
13721;DHT22;6932;51.438;5.470;2022-07-23T04:18:44;22.90;86.60
13721;DHT22;6932;51.438;5.470;2022-07-23T04:21:09;22.90;87.30
13721;DHT22;6932;51.438;5.470;2022-07-23T04:23:35;22.90;87.80
13721;DHT22;6932;51.438;5.470;2022-07-23T04:26:01;22.90;87.60
13721;DHT22;6932;51.438;5.470;2022-07-23T04:28:27;22.90;87.20
13721;DHT22;6932;51.438;5.470;2022-07-23T04:30:55;22.90;87.40
13721;DHT22;6932;51.438;5.470;2022-07-23T04:33:21;23.00;88.00
13721;DHT22;6932;51.438;5.470;2022-07-23T04:35:47;23.00;87.40
13721;DHT22;6932;51.438;5.470;2022-07-23T04:38:13;23.00;87.80
13721;DHT22;6932;51.438;5.470;2022-07-23T04:40:39;23.00;87.40
13721;DHT22;6932;51.438;5.470;2022-07-23T04:43:04;23.10;87.40
13721;DHT22;6932;51.438;5.470;2022-07-23T04:45:30;23.10;87.00
13721;DHT22;6932;51.438;5.470;2022-07-23T04:47:56;23.10;86.90
13721;DHT22;6932;51.438;5.470;2022-07-23T04:50:22;23.10;87.40
13721;DHT22;6932;51.438;5.470;2022-07-23T04:52:48;23.20;87.40
13721;DHT22;6932;51.438;5.470;2022-07-23T04:55:14;23.30;87.30
13721;DHT22;6932;51.438;5.470;2022-07-23T04:57:41;23.30;86.70
13721;DHT22;6932;51.438;5.470;2022-07-23T05:00:07;23.40;87.00
13721;DHT22;6932;51.438;5.470;2022-07-23T05:02:33;23.40;86.70
13721;DHT22;6932;51.438;5.470;2022-07-23T05:04:59;23.50;86.60
13721;DHT22;6932;51.438;5.470;2022-07-23T05:07:25;23.60;86.40
13721;DHT22;6932;51.438;5.470;2022-07-23T05:09:50;23.60;86.20
13721;DHT22;6932;51.438;5.470;2022-07-23T05:12:16;23.70;85.80
13721;DHT22;6932;51.438;5.470;2022-07-23T05:14:42;23.80;85.80
13721;DHT22;6932;51.438;5.470;2022-07-23T05:17:08;23.90;85.60
13721;DHT22;6932;51.438;5.470;2022-07-23T05:19:35;24.00;85.10
13721;DHT22;6932;51.438;5.470;2022-07-23T05:22:01;24.00;84.30
13721;DHT22;6932;51.438;5.470;2022-07-23T05:24:27;24.10;84.40
13721;DHT22;6932;51.438;5.470;2022-07-23T05:26:53;24.10;84.10
13721;DHT22;6932;51.438;5.470;2022-07-23T05:29:18;24.10;84.20
13721;DHT22;6932;51.438;5.470;2022-07-23T05:31:44;24.20;84.50
13721;DHT22;6932;51.438;5.470;2022-07-23T05:34:10;24.20;85.00
13721;DHT22;6932;51.438;5.470;2022-07-23T05:36:36;24.30;84.50
13721;DHT22;6932;51.438;5.470;2022-07-23T05:39:02;24.30;84.00
13721;DHT22;6932;51.438;5.470;2022-07-23T05:41:28;24.40;83.80
13721;DHT22;6932;51.438;5.470;2022-07-23T05:43:54;24.50;83.50
13721;DHT22;6932;51.438;5.470;2022-07-23T05:46:20;24.50;83.40
13721;DHT22;6932;51.438;5.470;2022-07-23T05:48:45;24.60;83.00
13721;DHT22;6932;51.438;5.470;2022-07-23T05:51:19;24.70;83.20
13721;DHT22;6932;51.438;5.470;2022-07-23T05:53:46;24.80;81.50
13721;DHT22;6932;51.438;5.470;2022-07-23T05:56:12;24.90;81.30
13721;DHT22;6932;51.438;5.470;2022-07-23T05:58:38;24.90;81.40
13721;DHT22;6932;51.438;5.470;2022-07-23T06:01:04;25.00;80.80
13721;DHT22;6932;51.438;5.470;2022-07-23T06:03:30;25.00;80.20
13721;DHT22;6932;51.438;5.470;2022-07-23T06:05:55;25.10;80.10
13721;DHT22;6932;51.438;5.470;2022-07-23T06:08:21;25.10;79.50
13721;DHT22;6932;51.438;5.470;2022-07-23T06:10:47;25.20;79.70
13721;DHT22;6932;51.438;5.470;2022-07-23T06:13:12;25.20;79.50
13721;DHT22;6932;51.438;5.470;2022-07-23T06:15:38;25.30;79.00
13721;DHT22;6932;51.438;5.470;2022-07-23T06:18:04;25.30;78.80
13721;DHT22;6932;51.438;5.470;2022-07-23T06:20:30;25.40;78.50
13721;DHT22;6932;51.438;5.470;2022-07-23T06:22:55;25.40;78.40
13721;DHT22;6932;51.438;5.470;2022-07-23T06:25:21;25.50;77.60
13721;DHT22;6932;51.438;5.470;2022-07-23T06:27:47;25.60;77.10
13721;DHT22;6932;51.438;5.470;2022-07-23T06:30:14;25.60;76.40
13721;DHT22;6932;51.438;5.470;2022-07-23T06:32:41;25.70;76.70
13721;DHT22;6932;51.438;5.470;2022-07-23T06:35:07;25.70;75.90
13721;DHT22;6932;51.438;5.470;2022-07-23T06:37:33;25.80;76.10
13721;DHT22;6932;51.438;5.470;2022-07-23T06:39:59;25.80;76.40
13721;DHT22;6932;51.438;5.470;2022-07-23T06:42:24;25.80;76.70
13721;DHT22;6932;51.438;5.470;2022-07-23T06:44:50;25.80;75.80
13721;DHT22;6932;51.438;5.470;2022-07-23T06:47:16;25.90;75.20
13721;DHT22;6932;51.438;5.470;2022-07-23T06:49:41;25.90;75.50
13721;DHT22;6932;51.438;5.470;2022-07-23T06:52:08;25.90;75.60
13721;DHT22;6932;51.438;5.470;2022-07-23T06:54:34;26.00;75.60
13721;DHT22;6932;51.438;5.470;2022-07-23T06:57:00;26.10;76.10
13721;DHT22;6932;51.438;5.470;2022-07-23T06:59:25;26.10;75.30
13721;DHT22;6932;51.438;5.470;2022-07-23T07:01:51;26.30;74.60
13721;DHT22;6932;51.438;5.470;2022-07-23T07:04:17;26.40;74.90
13721;DHT22;6932;51.438;5.470;2022-07-23T07:06:42;26.40;75.40
13721;DHT22;6932;51.438;5.470;2022-07-23T07:09:08;26.50;74.50
13721;DHT22;6932;51.438;5.470;2022-07-23T07:11:34;26.60;73.60
13721;DHT22;6932;51.438;5.470;2022-07-23T07:14:00;26.70;73.20
13721;DHT22;6932;51.438;5.470;2022-07-23T07:16:26;26.80;73.30
13721;DHT22;6932;51.438;5.470;2022-07-23T07:18:51;26.90;73.30
13721;DHT22;6932;51.438;5.470;2022-07-23T07:21:17;27.00;72.20
13721;DHT22;6932;51.438;5.470;2022-07-23T07:23:43;27.10;71.80
13721;DHT22;6932;51.438;5.470;2022-07-23T07:26:08;27.20;71.30
13721;DHT22;6932;51.438;5.470;2022-07-23T07:28:34;27.20;71.50
13721;DHT22;6932;51.438;5.470;2022-07-23T07:31:00;27.20;71.70
13721;DHT22;6932;51.438;5.470;2022-07-23T07:33:26;27.20;72.20
13721;DHT22;6932;51.438;5.470;2022-07-23T07:35:51;27.30;72.40
13721;DHT22;6932;51.438;5.470;2022-07-23T07:38:17;27.30;71.60
13721;DHT22;6932;51.438;5.470;2022-07-23T07:40:43;27.40;71.00
13721;DHT22;6932;51.438;5.470;2022-07-23T07:43:09;27.50;70.90
13721;DHT22;6932;51.438;5.470;2022-07-23T07:45:34;27.50;70.80
13721;DHT22;6932;51.438;5.470;2022-07-23T07:48:00;27.60;70.80
13721;DHT22;6932;51.438;5.470;2022-07-23T07:50:26;27.70;70.90
13721;DHT22;6932;51.438;5.470;2022-07-23T07:52:52;27.80;70.50
13721;DHT22;6932;51.438;5.470;2022-07-23T07:55:17;27.90;70.40
13721;DHT22;6932;51.438;5.470;2022-07-23T07:57:43;28.00;70.60
13721;DHT22;6932;51.438;5.470;2022-07-23T08:00:10;28.10;69.40
13721;DHT22;6932;51.438;5.470;2022-07-23T08:02:50;28.20;69.70
13721;DHT22;6932;51.438;5.470;2022-07-23T08:05:22;28.30;70.30
13721;DHT22;6932;51.438;5.470;2022-07-23T08:07:49;28.40;68.80
13721;DHT22;6932;51.438;5.470;2022-07-23T08:10:15;28.50;68.10
13721;DHT22;6932;51.438;5.470;2022-07-23T08:15:15;28.70;67.50
13721;DHT22;6932;51.438;5.470;2022-07-23T08:17:43;28.90;68.00
13721;DHT22;6932;51.438;5.470;2022-07-23T08:20:12;29.00;67.60
13721;DHT22;6932;51.438;5.470;2022-07-23T08:22:54;29.20;67.10
13721;DHT22;6932;51.438;5.470;2022-07-23T08:25:34;29.40;66.90
13721;DHT22;6932;51.438;5.470;2022-07-23T08:28:03;29.60;66.50
13721;DHT22;6932;51.438;5.470;2022-07-23T08:30:31;29.70;66.20
13721;DHT22;6932;51.438;5.470;2022-07-23T08:33:02;29.80;64.30
13721;DHT22;6932;51.438;5.470;2022-07-23T08:35:46;29.90;63.40
13721;DHT22;6932;51.438;5.470;2022-07-23T08:38:16;29.90;63.50
13721;DHT22;6932;51.438;5.470;2022-07-23T08:40:50;30.00;63.90
13721;DHT22;6932;51.438;5.470;2022-07-23T08:43:23;30.00;64.20
13721;DHT22;6932;51.438;5.470;2022-07-23T08:45:55;30.10;64.50
13721;DHT22;6932;51.438;5.470;2022-07-23T08:48:24;30.20;64.30
13721;DHT22;6932;51.438;5.470;2022-07-23T08:50:56;30.30;64.10
13721;DHT22;6932;51.438;5.470;2022-07-23T08:53:25;30.40;63.90
13721;DHT22;6932;51.438;5.470;2022-07-23T08:55:54;30.40;63.10
13721;DHT22;6932;51.438;5.470;2022-07-23T08:58:22;30.50;62.50
13721;DHT22;6932;51.438;5.470;2022-07-23T09:00:50;30.60;62.40
13721;DHT22;6932;51.438;5.470;2022-07-23T09:03:20;30.60;62.60
13721;DHT22;6932;51.438;5.470;2022-07-23T09:05:53;30.60;61.60
13721;DHT22;6932;51.438;5.470;2022-07-23T09:08:25;30.60;61.20
13721;DHT22;6932;51.438;5.470;2022-07-23T09:11:05;30.70;61.70
13721;DHT22;6932;51.438;5.470;2022-07-23T09:13:49;30.70;61.40
13721;DHT22;6932;51.438;5.470;2022-07-23T09:16:28;30.70;61.30
13721;DHT22;6932;51.438;5.470;2022-07-23T09:19:03;30.90;61.10
13721;DHT22;6932;51.438;5.470;2022-07-23T09:21:37;30.90;60.70
13721;DHT22;6932;51.438;5.470;2022-07-23T09:26:45;30.90;61.00
13721;DHT22;6932;51.438;5.470;2022-07-23T09:29:17;30.90;60.70
13721;DHT22;6932;51.438;5.470;2022-07-23T09:31:56;30.90;60.70
13721;DHT22;6932;51.438;5.470;2022-07-23T09:36:55;31.00;60.10
13721;DHT22;6932;51.438;5.470;2022-07-23T09:39:31;31.00;60.40
13721;DHT22;6932;51.438;5.470;2022-07-23T09:42:19;31.10;60.50
13721;DHT22;6932;51.438;5.470;2022-07-23T09:44:49;31.10;60.30
13721;DHT22;6932;51.438;5.470;2022-07-23T09:47:18;31.10;59.90
13721;DHT22;6932;51.438;5.470;2022-07-23T09:50:04;31.20;60.20
13721;DHT22;6932;51.438;5.470;2022-07-23T09:52:44;31.10;59.80
13721;DHT22;6932;51.438;5.470;2022-07-23T09:55:13;31.20;59.70
13721;DHT22;6932;51.438;5.470;2022-07-23T09:57:43;31.20;59.60
13721;DHT22;6932;51.438;5.470;2022-07-23T10:00:11;31.20;59.80
13721;DHT22;6932;51.438;5.470;2022-07-23T10:02:39;31.30;59.80
13721;DHT22;6932;51.438;5.470;2022-07-23T10:05:06;31.30;59.50
13721;DHT22;6932;51.438;5.470;2022-07-23T10:07:36;31.40;59.40
13721;DHT22;6932;51.438;5.470;2022-07-23T10:10:05;31.40;59.00
13721;DHT22;6932;51.438;5.470;2022-07-23T10:12:32;31.40;58.90
13721;DHT22;6932;51.438;5.470;2022-07-23T10:15:07;31.40;58.90
13721;DHT22;6932;51.438;5.470;2022-07-23T10:17:34;31.40;58.70
13721;DHT22;6932;51.438;5.470;2022-07-23T10:20:00;31.40;58.80
13721;DHT22;6932;51.438;5.470;2022-07-23T10:22:38;31.50;58.60
13721;DHT22;6932;51.438;5.470;2022-07-23T10:25:27;31.50;58.80
13721;DHT22;6932;51.438;5.470;2022-07-23T10:31:31;31.50;58.80
13721;DHT22;6932;51.438;5.470;2022-07-23T10:34:21;31.50;58.10
13721;DHT22;6932;51.438;5.470;2022-07-23T10:37:17;31.60;58.30
13721;DHT22;6932;51.438;5.470;2022-07-23T10:40:20;31.60;57.60
13721;DHT22;6932;51.438;5.470;2022-07-23T10:42:51;31.60;57.00
13721;DHT22;6932;51.438;5.470;2022-07-23T10:45:35;31.60;56.10
13721;DHT22;6932;51.438;5.470;2022-07-23T10:51:12;31.60;56.20
13721;DHT22;6932;51.438;5.470;2022-07-23T10:59:20;31.80;56.40
13721;DHT22;6932;51.438;5.470;2022-07-23T11:01:46;31.90;56.20
13721;DHT22;6932;51.438;5.470;2022-07-23T11:04:12;32.00;56.20
13721;DHT22;6932;51.438;5.470;2022-07-23T11:09:41;32.20;54.90
13721;DHT22;6932;51.438;5.470;2022-07-23T11:17:58;32.20;55.10
13721;DHT22;6932;51.438;5.470;2022-07-23T11:20:25;32.20;55.20
13721;DHT22;6932;51.438;5.470;2022-07-23T11:22:59;32.10;54.70
13721;DHT22;6932;51.438;5.470;2022-07-23T11:27:51;32.00;56.00
13721;DHT22;6932;51.438;5.470;2022-07-23T11:30:46;32.00;55.90
13721;DHT22;6932;51.438;5.470;2022-07-23T11:35:44;32.00;55.80
13721;DHT22;6932;51.438;5.470;2022-07-23T11:38:20;32.10;56.30
13721;DHT22;6932;51.438;5.470;2022-07-23T11:40:52;32.10;56.20
13721;DHT22;6932;51.438;5.470;2022-07-23T11:43:20;32.20;56.10
13721;DHT22;6932;51.438;5.470;2022-07-23T11:45:49;32.20;55.80
13721;DHT22;6932;51.438;5.470;2022-07-23T11:48:26;32.20;56.10
13721;DHT22;6932;51.438;5.470;2022-07-23T11:50:54;32.30;56.00
13721;DHT22;6932;51.438;5.470;2022-07-23T11:53:26;32.30;56.20
13721;DHT22;6932;51.438;5.470;2022-07-23T11:56:09;32.30;56.00
13721;DHT22;6932;51.438;5.470;2022-07-23T11:58:36;32.40;55.70
13721;DHT22;6932;51.438;5.470;2022-07-23T12:01:03;32.40;55.80
13721;DHT22;6932;51.438;5.470;2022-07-23T12:03:29;32.40;55.30
13721;DHT22;6932;51.438;5.470;2022-07-23T12:05:59;32.30;55.30
13721;DHT22;6932;51.438;5.470;2022-07-23T12:08:25;32.30;55.40
13721;DHT22;6932;51.438;5.470;2022-07-23T12:10:51;32.30;54.80
13721;DHT22;6932;51.438;5.470;2022-07-23T12:13:19;32.30;55.20
13721;DHT22;6932;51.438;5.470;2022-07-23T12:15:52;32.30;54.70
13721;DHT22;6932;51.438;5.470;2022-07-23T12:18:23;32.30;54.70
13721;DHT22;6932;51.438;5.470;2022-07-23T12:20:53;32.30;54.60
13721;DHT22;6932;51.438;5.470;2022-07-23T12:23:24;32.20;54.70
13721;DHT22;6932;51.438;5.470;2022-07-23T12:25:52;32.20;54.80
13721;DHT22;6932;51.438;5.470;2022-07-23T12:28:29;32.20;54.80
13721;DHT22;6932;51.438;5.470;2022-07-23T12:30:58;32.20;54.90
13721;DHT22;6932;51.438;5.470;2022-07-23T12:35:56;32.20;54.20
13721;DHT22;6932;51.438;5.470;2022-07-23T12:38:25;32.20;54.50
13721;DHT22;6932;51.438;5.470;2022-07-23T12:40:56;32.20;54.50
13721;DHT22;6932;51.438;5.470;2022-07-23T12:43:36;32.10;54.50
13721;DHT22;6932;51.438;5.470;2022-07-23T12:46:11;32.10;54.30
13721;DHT22;6932;51.438;5.470;2022-07-23T12:53:50;32.00;53.90
13721;DHT22;6932;51.438;5.470;2022-07-23T12:56:30;31.90;53.60
13721;DHT22;6932;51.438;5.470;2022-07-23T12:59:11;31.80;53.80
13721;DHT22;6932;51.438;5.470;2022-07-23T13:01:53;31.60;54.00
13721;DHT22;6932;51.438;5.470;2022-07-23T13:04:24;31.40;54.00
13721;DHT22;6932;51.438;5.470;2022-07-23T13:06:58;31.30;54.50
13721;DHT22;6932;51.438;5.470;2022-07-23T13:09:29;31.10;55.40
13721;DHT22;6932;51.438;5.470;2022-07-23T13:11:57;31.00;55.30
13721;DHT22;6932;51.438;5.470;2022-07-23T13:14:24;30.90;55.10
13721;DHT22;6932;51.438;5.470;2022-07-23T13:16:51;30.80;55.60
13721;DHT22;6932;51.438;5.470;2022-07-23T13:19:18;30.80;55.90
13721;DHT22;6932;51.438;5.470;2022-07-23T13:21:47;30.80;56.10
13721;DHT22;6932;51.438;5.470;2022-07-23T13:24:14;30.90;56.20
13721;DHT22;6932;51.438;5.470;2022-07-23T13:26:41;30.90;56.00
13721;DHT22;6932;51.438;5.470;2022-07-23T13:29:07;31.00;56.70
13721;DHT22;6932;51.438;5.470;2022-07-23T13:31:33;31.10;55.50
13721;DHT22;6932;51.438;5.470;2022-07-23T13:34:01;31.10;55.50
13721;DHT22;6932;51.438;5.470;2022-07-23T13:36:27;31.20;55.50
13721;DHT22;6932;51.438;5.470;2022-07-23T13:38:53;31.20;55.40
13721;DHT22;6932;51.438;5.470;2022-07-23T13:41:19;31.30;55.70
13721;DHT22;6932;51.438;5.470;2022-07-23T13:43:45;31.30;56.10
13721;DHT22;6932;51.438;5.470;2022-07-23T13:46:11;31.30;56.10
13721;DHT22;6932;51.438;5.470;2022-07-23T13:48:37;31.30;56.00
13721;DHT22;6932;51.438;5.470;2022-07-23T13:51:03;31.30;55.90
13721;DHT22;6932;51.438;5.470;2022-07-23T13:53:28;31.40;55.40
13721;DHT22;6932;51.438;5.470;2022-07-23T13:55:54;31.50;55.60
13721;DHT22;6932;51.438;5.470;2022-07-23T13:58:22;31.50;55.20
13721;DHT22;6932;51.438;5.470;2022-07-23T14:00:50;31.60;55.20
13721;DHT22;6932;51.438;5.470;2022-07-23T14:03:18;31.70;55.70
13721;DHT22;6932;51.438;5.470;2022-07-23T14:05:45;31.70;54.80
13721;DHT22;6932;51.438;5.470;2022-07-23T14:08:10;31.80;54.80
13721;DHT22;6932;51.438;5.470;2022-07-23T14:10:36;31.80;54.50
13721;DHT22;6932;51.438;5.470;2022-07-23T14:13:03;31.90;54.60
13721;DHT22;6932;51.438;5.470;2022-07-23T14:15:30;31.90;54.70
13721;DHT22;6932;51.438;5.470;2022-07-23T14:17:57;31.90;54.60
13721;DHT22;6932;51.438;5.470;2022-07-23T14:20:24;31.80;54.80
13721;DHT22;6932;51.438;5.470;2022-07-23T14:22:51;31.80;54.40
13721;DHT22;6932;51.438;5.470;2022-07-23T14:25:17;31.90;54.60
13721;DHT22;6932;51.438;5.470;2022-07-23T14:27:43;31.90;54.70
13721;DHT22;6932;51.438;5.470;2022-07-23T14:30:11;31.90;54.70
13721;DHT22;6932;51.438;5.470;2022-07-23T14:32:37;31.90;54.40
13721;DHT22;6932;51.438;5.470;2022-07-23T14:35:03;32.00;54.10
13721;DHT22;6932;51.438;5.470;2022-07-23T14:37:30;32.00;54.20
13721;DHT22;6932;51.438;5.470;2022-07-23T14:39:56;32.00;54.30
13721;DHT22;6932;51.438;5.470;2022-07-23T14:42:22;32.10;54.20
13721;DHT22;6932;51.438;5.470;2022-07-23T14:44:47;32.00;54.20
13721;DHT22;6932;51.438;5.470;2022-07-23T14:47:13;32.00;54.20
13721;DHT22;6932;51.438;5.470;2022-07-23T14:49:39;32.00;54.30
13721;DHT22;6932;51.438;5.470;2022-07-23T14:52:05;31.90;54.30
13721;DHT22;6932;51.438;5.470;2022-07-23T14:54:31;31.90;54.40
13721;DHT22;6932;51.438;5.470;2022-07-23T14:56:58;31.80;54.50
13721;DHT22;6932;51.438;5.470;2022-07-23T14:59:26;31.80;54.70
13721;DHT22;6932;51.438;5.470;2022-07-23T15:01:52;31.70;54.90
13721;DHT22;6932;51.438;5.470;2022-07-23T15:04:19;31.70;55.00
13721;DHT22;6932;51.438;5.470;2022-07-23T15:06:45;31.70;55.20
13721;DHT22;6932;51.438;5.470;2022-07-23T15:09:11;31.60;55.30
13721;DHT22;6932;51.438;5.470;2022-07-23T15:11:36;31.60;55.40
13721;DHT22;6932;51.438;5.470;2022-07-23T15:48:04;28.20;61.80
13721;DHT22;6932;51.438;5.470;2022-07-23T15:50:30;28.00;62.30
13721;DHT22;6932;51.438;5.470;2022-07-23T15:52:56;28.20;62.00
13721;DHT22;6932;51.438;5.470;2022-07-23T15:55:23;28.70;61.30
13721;DHT22;6932;51.438;5.470;2022-07-23T15:57:50;29.00;60.60
13721;DHT22;6932;51.438;5.470;2022-07-23T16:00:16;29.40;59.70
13721;DHT22;6932;51.438;5.470;2022-07-23T16:02:42;29.80;59.00
13721;DHT22;6932;51.438;5.470;2022-07-23T16:05:09;30.10;58.40
13721;DHT22;6932;51.438;5.470;2022-07-23T16:07:53;30.40;58.10
13721;DHT22;6932;51.438;5.470;2022-07-23T16:10:19;30.50;57.40
13721;DHT22;6932;51.438;5.470;2022-07-23T16:12:46;30.70;57.40
13721;DHT22;6932;51.438;5.470;2022-07-23T16:15:12;30.80;57.30
13721;DHT22;6932;51.438;5.470;2022-07-23T16:17:38;30.90;57.10
13721;DHT22;6932;51.438;5.470;2022-07-23T16:20:04;31.00;57.30
13721;DHT22;6932;51.438;5.470;2022-07-23T16:22:32;31.10;57.20
13721;DHT22;6932;51.438;5.470;2022-07-23T16:24:58;31.20;57.30
13721;DHT22;6932;51.438;5.470;2022-07-23T16:27:24;31.20;57.00
13721;DHT22;6932;51.438;5.470;2022-07-23T16:29:50;31.30;56.80
13721;DHT22;6932;51.438;5.470;2022-07-23T16:32:16;31.30;56.50
13721;DHT22;6932;51.438;5.470;2022-07-23T16:34:42;31.30;56.50
13721;DHT22;6932;51.438;5.470;2022-07-23T16:37:09;31.40;56.50
13721;DHT22;6932;51.438;5.470;2022-07-23T16:39:35;31.30;56.50
13721;DHT22;6932;51.438;5.470;2022-07-23T16:42:01;31.40;56.60
13721;DHT22;6932;51.438;5.470;2022-07-23T16:44:27;31.30;56.50
13721;DHT22;6932;51.438;5.470;2022-07-23T16:46:52;31.40;56.50
13721;DHT22;6932;51.438;5.470;2022-07-23T16:49:19;31.40;56.20
13721;DHT22;6932;51.438;5.470;2022-07-23T16:51:45;31.30;56.10
13721;DHT22;6932;51.438;5.470;2022-07-23T16:54:11;31.30;56.20
13721;DHT22;6932;51.438;5.470;2022-07-23T16:56:37;31.30;56.50
13721;DHT22;6932;51.438;5.470;2022-07-23T16:59:03;31.30;56.80
13721;DHT22;6932;51.438;5.470;2022-07-23T17:01:28;31.20;56.80
13721;DHT22;6932;51.438;5.470;2022-07-23T17:03:54;31.30;56.40
13721;DHT22;6932;51.438;5.470;2022-07-23T17:06:20;31.30;56.30